sensor_id;sensor_type;location;lat;lon;timestamp;pressure;altitude;pressure_sealevel;temperature;humidity
43934;BME280;59081;42.706;23.306;2023-04-25T00:00:43;94435.28;;;10.71;100.00
43934;BME280;59081;42.706;23.306;2023-04-25T00:03:09;94428.06;;;10.56;100.00
43934;BME280;59081;42.706;23.306;2023-04-25T00:05:34;94411.19;;;10.44;100.00
43934;BME280;59081;42.706;23.306;2023-04-25T00:08:02;94416.53;;;10.48;100.00
43934;BME280;59081;42.706;23.306;2023-04-25T00:10:28;94399.84;;;10.33;100.00
43934;BME280;59081;42.706;23.306;2023-04-25T00:12:53;94339.00;;;10.00;100.00
43934;BME280;59081;42.706;23.306;2023-04-25T00:15:19;94362.19;;;10.21;100.00
43934;BME280;59081;42.706;23.306;2023-04-25T00:17:44;94345.69;;;10.30;100.00
43934;BME280;59081;42.706;23.306;2023-04-25T00:20:11;94333.28;;;10.26;100.00
43934;BME280;59081;42.706;23.306;2023-04-25T00:22:37;94440.50;;;10.97;100.00
43934;BME280;59081;42.706;23.306;2023-04-25T00:25:04;94391.91;;;10.44;100.00
43934;BME280;59081;42.706;23.306;2023-04-25T00:27:30;94343.59;;;10.03;100.00
43934;BME280;59081;42.706;23.306;2023-04-25T00:29:55;94366.31;;;10.26;100.00
43934;BME280;59081;42.706;23.306;2023-04-25T00:32:21;94375.09;;;10.52;100.00
43934;BME280;59081;42.706;23.306;2023-04-25T00:34:46;94313.34;;;10.12;100.00
43934;BME280;59081;42.706;23.306;2023-04-25T00:37:12;94397.78;;;10.74;100.00
43934;BME280;59081;42.706;23.306;2023-04-25T00:39:37;94393.50;;;10.73;100.00
43934;BME280;59081;42.706;23.306;2023-04-25T00:42:03;94439.31;;;11.07;100.00
43934;BME280;59081;42.706;23.306;2023-04-25T00:44:30;94442.34;;;11.09;100.00
43934;BME280;59081;42.706;23.306;2023-04-25T00:46:56;94353.38;;;10.54;100.00
43934;BME280;59081;42.706;23.306;2023-04-25T00:49:22;94329.97;;;10.49;100.00
43934;BME280;59081;42.706;23.306;2023-04-25T00:51:48;94334.72;;;10.49;100.00
43934;BME280;59081;42.706;23.306;2023-04-25T00:54:13;94395.34;;;10.94;100.00
43934;BME280;59081;42.706;23.306;2023-04-25T00:56:39;94355.84;;;10.70;100.00
43934;BME280;59081;42.706;23.306;2023-04-25T00:59:05;94405.41;;;10.61;100.00
43934;BME280;59081;42.706;23.306;2023-04-25T01:01:31;94355.59;;;10.19;100.00
43934;BME280;59081;42.706;23.306;2023-04-25T01:03:58;94358.00;;;10.17;100.00
43934;BME280;59081;42.706;23.306;2023-04-25T01:06:23;94358.38;;;10.28;100.00
43934;BME280;59081;42.706;23.306;2023-04-25T01:08:49;94298.31;;;9.95;100.00
43934;BME280;59081;42.706;23.306;2023-04-25T01:11:14;94423.19;;;10.78;100.00
43934;BME280;59081;42.706;23.306;2023-04-25T01:13:40;94372.50;;;10.48;100.00
43934;BME280;59081;42.706;23.306;2023-04-25T01:16:06;94306.50;;;10.17;100.00
43934;BME280;59081;42.706;23.306;2023-04-25T01:18:31;94316.16;;;10.31;100.00
43934;BME280;59081;42.706;23.306;2023-04-25T01:21:08;94380.22;;;10.90;100.00
43934;BME280;59081;42.706;23.306;2023-04-25T01:23:35;94237.16;;;9.82;100.00
43934;BME280;59081;42.706;23.306;2023-04-25T01:26:01;94359.50;;;10.58;100.00
43934;BME280;59081;42.706;23.306;2023-04-25T01:28:27;94310.66;;;10.31;100.00
43934;BME280;59081;42.706;23.306;2023-04-25T01:30:53;94318.94;;;10.31;100.00
43934;BME280;59081;42.706;23.306;2023-04-25T01:33:20;94342.81;;;10.52;100.00
43934;BME280;59081;42.706;23.306;2023-04-25T01:35:46;94313.13;;;10.38;100.00
43934;BME280;59081;42.706;23.306;2023-04-25T01:38:12;94363.19;;;10.64;100.00
43934;BME280;59081;42.706;23.306;2023-04-25T01:40:39;94309.44;;;10.32;100.00
43934;BME280;59081;42.706;23.306;2023-04-25T01:43:05;94307.22;;;10.08;100.00
43934;BME280;59081;42.706;23.306;2023-04-25T01:45:31;94256.06;;;9.71;100.00
43934;BME280;59081;42.706;23.306;2023-04-25T01:47:56;94315.03;;;10.10;100.00
43934;BME280;59081;42.706;23.306;2023-04-25T01:50:25;94382.00;;;10.65;100.00
43934;BME280;59081;42.706;23.306;2023-04-25T01:52:50;94359.66;;;10.54;100.00
43934;BME280;59081;42.706;23.306;2023-04-25T01:55:16;94423.94;;;10.78;100.00
43934;BME280;59081;42.706;23.306;2023-04-25T01:57:41;94334.19;;;10.23;100.00
43934;BME280;59081;42.706;23.306;2023-04-25T02:00:07;94364.97;;;9.99;100.00
43934;BME280;59081;42.706;23.306;2023-04-25T02:02:34;94392.25;;;10.16;100.00
43934;BME280;59081;42.706;23.306;2023-04-25T02:05:00;94332.94;;;9.74;100.00
43934;BME280;59081;42.706;23.306;2023-04-25T02:07:26;94332.66;;;9.82;100.00
43934;BME280;59081;42.706;23.306;2023-04-25T02:09:52;94292.06;;;9.55;100.00
43934;BME280;59081;42.706;23.306;2023-04-25T02:12:17;94346.97;;;10.07;100.00
43934;BME280;59081;42.706;23.306;2023-04-25T02:14:43;94317.25;;;9.93;100.00
43934;BME280;59081;42.706;23.306;2023-04-25T02:17:08;94340.78;;;10.25;100.00
43934;BME280;59081;42.706;23.306;2023-04-25T02:19:33;94288.97;;;9.93;100.00
43934;BME280;59081;42.706;23.306;2023-04-25T02:21:59;94265.53;;;9.70;100.00
43934;BME280;59081;42.706;23.306;2023-04-25T02:24:24;94263.59;;;9.80;100.00
43934;BME280;59081;42.706;23.306;2023-04-25T02:26:50;94301.44;;;10.16;100.00
43934;BME280;59081;42.706;23.306;2023-04-25T02:29:16;94375.59;;;10.68;100.00
43934;BME280;59081;42.706;23.306;2023-04-25T02:31:42;94299.00;;;10.18;100.00
43934;BME280;59081;42.706;23.306;2023-04-25T02:34:07;94288.00;;;10.18;100.00
43934;BME280;59081;42.706;23.306;2023-04-25T02:36:33;94316.03;;;10.43;100.00
43934;BME280;59081;42.706;23.306;2023-04-25T02:39:00;94375.28;;;10.75;100.00
43934;BME280;59081;42.706;23.306;2023-04-25T02:41:26;94253.41;;;10.07;100.00
43934;BME280;59081;42.706;23.306;2023-04-25T02:43:52;94289.28;;;10.35;100.00
43934;BME280;59081;42.706;23.306;2023-04-25T02:46:17;94309.63;;;10.46;100.00
43934;BME280;59081;42.706;23.306;2023-04-25T02:48:43;94242.88;;;10.15;100.00
43934;BME280;59081;42.706;23.306;2023-04-25T02:51:08;94260.50;;;10.27;100.00
43934;BME280;59081;42.706;23.306;2023-04-25T02:53:34;94296.63;;;10.47;100.00
43934;BME280;59081;42.706;23.306;2023-04-25T02:55:59;94281.63;;;10.39;100.00
43934;BME280;59081;42.706;23.306;2023-04-25T02:58:25;94305.50;;;10.51;100.00
43934;BME280;59081;42.706;23.306;2023-04-25T03:00:50;94273.97;;;10.34;100.00
43934;BME280;59081;42.706;23.306;2023-04-25T03:03:16;94290.50;;;10.34;100.00
43934;BME280;59081;42.706;23.306;2023-04-25T03:05:49;94301.00;;;10.26;100.00
43934;BME280;59081;42.706;23.306;2023-04-25T03:08:18;94263.19;;;10.08;100.00
43934;BME280;59081;42.706;23.306;2023-04-25T03:10:45;94353.56;;;10.68;100.00
43934;BME280;59081;42.706;23.306;2023-04-25T03:13:10;94228.59;;;9.89;100.00
43934;BME280;59081;42.706;23.306;2023-04-25T03:15:37;94346.63;;;10.45;100.00
43934;BME280;59081;42.706;23.306;2023-04-25T03:18:02;94252.91;;;9.91;100.00
43934;BME280;59081;42.706;23.306;2023-04-25T03:20:28;94355.97;;;10.57;100.00
43934;BME280;59081;42.706;23.306;2023-04-25T03:22:54;94337.91;;;10.38;100.00
43934;BME280;59081;42.706;23.306;2023-04-25T03:25:19;94297.28;;;10.02;100.00
43934;BME280;59081;42.706;23.306;2023-04-25T03:27:45;94320.59;;;10.28;100.00
43934;BME280;59081;42.706;23.306;2023-04-25T03:30:11;94270.63;;;9.90;100.00
43934;BME280;59081;42.706;23.306;2023-04-25T03:32:36;94262.22;;;9.35;100.00
43934;BME280;59081;42.706;23.306;2023-04-25T03:35:02;94262.41;;;9.50;100.00
43934;BME280;59081;42.706;23.306;2023-04-25T03:37:28;94323.97;;;9.92;100.00
43934;BME280;59081;42.706;23.306;2023-04-25T03:39:53;94295.19;;;9.75;100.00
43934;BME280;59081;42.706;23.306;2023-04-25T03:42:19;94291.34;;;9.63;100.00
43934;BME280;59081;42.706;23.306;2023-04-25T03:44:45;94228.28;;;9.29;100.00
43934;BME280;59081;42.706;23.306;2023-04-25T03:47:10;94261.44;;;9.34;100.00
43934;BME280;59081;42.706;23.306;2023-04-25T03:49:35;94205.94;;;8.87;100.00
43934;BME280;59081;42.706;23.306;2023-04-25T03:52:02;94220.66;;;9.02;100.00
43934;BME280;59081;42.706;23.306;2023-04-25T03:54:27;94292.09;;;9.64;100.00
43934;BME280;59081;42.706;23.306;2023-04-25T03:56:53;94277.41;;;9.58;100.00
43934;BME280;59081;42.706;23.306;2023-04-25T03:59:18;94362.78;;;10.25;100.00
43934;BME280;59081;42.706;23.306;2023-04-25T04:01:44;94298.06;;;10.02;100.00
43934;BME280;59081;42.706;23.306;2023-04-25T04:04:09;94275.53;;;9.86;100.00
43934;BME280;59081;42.706;23.306;2023-04-25T04:06:34;94266.06;;;9.87;100.00
43934;BME280;59081;42.706;23.306;2023-04-25T04:09:01;94260.25;;;9.94;100.00
43934;BME280;59081;42.706;23.306;2023-04-25T04:11:27;94234.06;;;9.71;100.00
43934;BME280;59081;42.706;23.306;2023-04-25T04:13:52;94275.28;;;10.02;100.00
43934;BME280;59081;42.706;23.306;2023-04-25T04:16:18;94332.41;;;10.47;100.00
43934;BME280;59081;42.706;23.306;2023-04-25T04:18:45;94260.94;;;10.25;100.00
43934;BME280;59081;42.706;23.306;2023-04-25T04:21:10;94247.00;;;10.01;100.00
43934;BME280;59081;42.706;23.306;2023-04-25T04:23:36;94227.22;;;9.75;100.00
43934;BME280;59081;42.706;23.306;2023-04-25T04:26:02;94345.84;;;10.36;100.00
43934;BME280;59081;42.706;23.306;2023-04-25T04:28:28;94282.09;;;9.88;100.00
43934;BME280;59081;42.706;23.306;2023-04-25T04:30:53;94321.00;;;10.18;100.00
43934;BME280;59081;42.706;23.306;2023-04-25T04:33:18;94303.22;;;10.00;100.00
43934;BME280;59081;42.706;23.306;2023-04-25T04:35:49;94320.72;;;10.25;100.00
43934;BME280;59081;42.706;23.306;2023-04-25T04:38:17;94260.41;;;9.90;100.00
43934;BME280;59081;42.706;23.306;2023-04-25T04:40:43;94225.53;;;9.87;100.00
43934;BME280;59081;42.706;23.306;2023-04-25T04:43:09;94246.19;;;9.92;100.00
43934;BME280;59081;42.706;23.306;2023-04-25T04:45:35;94283.41;;;10.15;100.00
43934;BME280;59081;42.706;23.306;2023-04-25T04:48:01;94297.66;;;10.31;100.00
43934;BME280;59081;42.706;23.306;2023-04-25T04:50:27;94275.78;;;10.19;100.00
43934;BME280;59081;42.706;23.306;2023-04-25T04:52:52;94247.00;;;10.01;100.00
43934;BME280;59081;42.706;23.306;2023-04-25T04:55:19;94257.69;;;9.99;100.00
43934;BME280;59081;42.706;23.306;2023-04-25T04:57:45;94285.56;;;10.20;100.00
43934;BME280;59081;42.706;23.306;2023-04-25T05:00:11;94379.59;;;10.86;100.00
43934;BME280;59081;42.706;23.306;2023-04-25T05:02:38;94389.38;;;10.87;100.00
43934;BME280;59081;42.706;23.306;2023-04-25T05:05:05;94281.00;;;10.44;100.00
43934;BME280;59081;42.706;23.306;2023-04-25T05:07:30;94271.53;;;10.36;100.00
43934;BME280;59081;42.706;23.306;2023-04-25T05:09:56;94370.56;;;10.85;100.00
43934;BME280;59081;42.706;23.306;2023-04-25T05:12:21;94343.00;;;10.67;100.00
43934;BME280;59081;42.706;23.306;2023-04-25T05:14:46;94320.19;;;10.39;100.00
43934;BME280;59081;42.706;23.306;2023-04-25T05:17:12;94304.63;;;10.14;100.00
43934;BME280;59081;42.706;23.306;2023-04-25T05:19:39;94384.31;;;10.76;100.00
43934;BME280;59081;42.706;23.306;2023-04-25T05:22:04;94250.78;;;9.95;100.00
43934;BME280;59081;42.706;23.306;2023-04-25T05:24:30;94283.28;;;10.27;100.00
43934;BME280;59081;42.706;23.306;2023-04-25T05:26:56;94310.69;;;10.58;100.00
43934;BME280;59081;42.706;23.306;2023-04-25T05:29:22;94336.72;;;10.75;100.00
43934;BME280;59081;42.706;23.306;2023-04-25T05:31:47;94304.59;;;10.63;100.00
43934;BME280;59081;42.706;23.306;2023-04-25T05:34:13;94254.41;;;10.32;100.00
43934;BME280;59081;42.706;23.306;2023-04-25T05:36:39;94322.03;;;10.88;100.00
43934;BME280;59081;42.706;23.306;2023-04-25T05:39:04;94318.34;;;10.81;100.00
43934;BME280;59081;42.706;23.306;2023-04-25T05:41:31;94252.25;;;10.45;100.00
43934;BME280;59081;42.706;23.306;2023-04-25T05:43:56;94355.69;;;11.10;100.00
43934;BME280;59081;42.706;23.306;2023-04-25T05:46:22;94305.50;;;10.78;100.00
43934;BME280;59081;42.706;23.306;2023-04-25T05:48:47;94309.16;;;10.75;100.00
43934;BME280;59081;42.706;23.306;2023-04-25T05:51:13;94274.59;;;10.56;100.00
43934;BME280;59081;42.706;23.306;2023-04-25T05:53:38;94380.47;;;11.46;100.00
43934;BME280;59081;42.706;23.306;2023-04-25T05:56:04;94339.63;;;11.18;100.00
43934;BME280;59081;42.706;23.306;2023-04-25T05:58:29;94310.69;;;10.76;100.00
43934;BME280;59081;42.706;23.306;2023-04-25T06:00:55;94309.47;;;10.59;100.00
43934;BME280;59081;42.706;23.306;2023-04-25T06:03:20;94340.41;;;10.81;100.00
43934;BME280;59081;42.706;23.306;2023-04-25T06:05:46;94353.88;;;11.07;100.00
43934;BME280;59081;42.706;23.306;2023-04-25T06:08:12;94277.66;;;10.76;100.00
43934;BME280;59081;42.706;23.306;2023-04-25T06:10:37;94271.25;;;10.70;100.00
43934;BME280;59081;42.706;23.306;2023-04-25T06:13:04;94354.16;;;11.27;100.00
43934;BME280;59081;42.706;23.306;2023-04-25T06:15:30;94303.06;;;10.71;100.00
43934;BME280;59081;42.706;23.306;2023-04-25T06:17:58;94332.75;;;10.76;100.00
43934;BME280;59081;42.706;23.306;2023-04-25T06:20:24;94365.06;;;11.03;100.00
43934;BME280;59081;42.706;23.306;2023-04-25T06:22:50;94309.78;;;10.52;100.00
43934;BME280;59081;42.706;23.306;2023-04-25T06:25:17;94307.03;;;10.61;99.76
43934;BME280;59081;42.706;23.306;2023-04-25T06:27:42;94266.03;;;10.36;98.82
43934;BME280;59081;42.706;23.306;2023-04-25T06:30:08;94292.97;;;10.68;98.96
43934;BME280;59081;42.706;23.306;2023-04-25T06:32:33;94297.84;;;10.82;99.00
43934;BME280;59081;42.706;23.306;2023-04-25T06:35:00;94362.56;;;11.42;98.59
43934;BME280;59081;42.706;23.306;2023-04-25T06:37:25;94348.63;;;11.36;96.96
43934;BME280;59081;42.706;23.306;2023-04-25T06:39:51;94307.59;;;11.29;96.21
43934;BME280;59081;42.706;23.306;2023-04-25T06:42:16;94300.66;;;11.43;95.13
43934;BME280;59081;42.706;23.306;2023-04-25T06:44:42;94405.16;;;12.19;93.69
43934;BME280;59081;42.706;23.306;2023-04-25T06:47:07;94312.66;;;11.91;92.91
43934;BME280;59081;42.706;23.306;2023-04-25T06:49:32;94334.66;;;12.33;91.44
43934;BME280;59081;42.706;23.306;2023-04-25T06:51:58;94332.56;;;12.52;88.46
43934;BME280;59081;42.706;23.306;2023-04-25T06:54:23;94294.84;;;12.25;86.92
43934;BME280;59081;42.706;23.306;2023-04-25T06:56:50;94407.66;;;12.74;88.81
43934;BME280;59081;42.706;23.306;2023-04-25T06:59:15;94279.38;;;11.95;89.23
43934;BME280;59081;42.706;23.306;2023-04-25T07:01:41;94267.47;;;11.70;89.60
43934;BME280;59081;42.706;23.306;2023-04-25T07:04:06;94332.22;;;12.02;91.07
43934;BME280;59081;42.706;23.306;2023-04-25T07:06:32;94304.91;;;12.04;90.40
43934;BME280;59081;42.706;23.306;2023-04-25T07:08:57;94389.31;;;12.62;89.04
43934;BME280;59081;42.706;23.306;2023-04-25T07:11:23;94323.56;;;12.18;89.68
43934;BME280;59081;42.706;23.306;2023-04-25T07:13:48;94375.50;;;12.62;88.94
43934;BME280;59081;42.706;23.306;2023-04-25T07:16:13;94267.31;;;11.83;89.45
43934;BME280;59081;42.706;23.306;2023-04-25T07:18:39;94315.88;;;12.23;89.49
43934;BME280;59081;42.706;23.306;2023-04-25T07:21:04;94392.06;;;12.86;90.00
43934;BME280;59081;42.706;23.306;2023-04-25T07:23:30;94322.09;;;12.32;88.29
43934;BME280;59081;42.706;23.306;2023-04-25T07:25:55;94328.44;;;12.24;87.91
43934;BME280;59081;42.706;23.306;2023-04-25T07:28:21;94291.66;;;11.84;88.50
43934;BME280;59081;42.706;23.306;2023-04-25T07:30:47;94316.50;;;12.17;89.21
43934;BME280;59081;42.706;23.306;2023-04-25T07:33:12;94284.63;;;11.83;88.74
43934;BME280;59081;42.706;23.306;2023-04-25T07:35:37;94344.50;;;12.58;87.95
43934;BME280;59081;42.706;23.306;2023-04-25T07:38:03;94345.03;;;12.71;86.90
43934;BME280;59081;42.706;23.306;2023-04-25T07:40:29;94361.19;;;12.87;86.34
43934;BME280;59081;42.706;23.306;2023-04-25T07:42:55;94383.28;;;13.11;85.94
43934;BME280;59081;42.706;23.306;2023-04-25T07:45:20;94314.69;;;12.86;86.21
43934;BME280;59081;42.706;23.306;2023-04-25T07:47:46;94274.13;;;12.68;86.51
43934;BME280;59081;42.706;23.306;2023-04-25T07:50:11;94272.25;;;12.74;84.93
43934;BME280;59081;42.706;23.306;2023-04-25T07:52:37;94291.94;;;13.06;83.91
43934;BME280;59081;42.706;23.306;2023-04-25T07:55:02;94312.22;;;13.41;85.09
43934;BME280;59081;42.706;23.306;2023-04-25T07:57:28;94322.03;;;13.72;85.39
43934;BME280;59081;42.706;23.306;2023-04-25T07:59:54;94257.56;;;13.36;82.00
43934;BME280;59081;42.706;23.306;2023-04-25T08:02:19;94301.44;;;13.73;83.04
43934;BME280;59081;42.706;23.306;2023-04-25T08:04:45;94261.19;;;13.57;81.49
43934;BME280;59081;42.706;23.306;2023-04-25T08:07:11;94285.28;;;13.71;80.60
43934;BME280;59081;42.706;23.306;2023-04-25T08:09:37;94278.03;;;13.74;78.58
43934;BME280;59081;42.706;23.306;2023-04-25T08:12:03;94376.22;;;14.37;78.40
43934;BME280;59081;42.706;23.306;2023-04-25T08:14:30;94287.16;;;14.09;76.82
43934;BME280;59081;42.706;23.306;2023-04-25T08:17:01;94366.53;;;15.03;73.88
43934;BME280;59081;42.706;23.306;2023-04-25T08:19:26;94354.78;;;15.33;73.70
43934;BME280;59081;42.706;23.306;2023-04-25T08:21:51;94320.06;;;15.44;72.76
43934;BME280;59081;42.706;23.306;2023-04-25T08:24:17;94311.69;;;15.12;71.02
43934;BME280;59081;42.706;23.306;2023-04-25T08:26:42;94235.50;;;14.26;71.35
43934;BME280;59081;42.706;23.306;2023-04-25T08:29:08;94288.03;;;14.36;71.11
43934;BME280;59081;42.706;23.306;2023-04-25T08:31:33;94269.78;;;14.44;72.54
43934;BME280;59081;42.706;23.306;2023-04-25T08:33:58;94298.88;;;14.54;76.36
43934;BME280;59081;42.706;23.306;2023-04-25T08:36:24;94252.00;;;14.15;80.93
43934;BME280;59081;42.706;23.306;2023-04-25T08:38:50;94252.66;;;14.10;83.49
43934;BME280;59081;42.706;23.306;2023-04-25T08:41:16;94276.50;;;14.22;84.79
43934;BME280;59081;42.706;23.306;2023-04-25T08:43:43;94307.81;;;14.28;85.50
43934;BME280;59081;42.706;23.306;2023-04-25T08:46:11;94271.50;;;13.42;82.38
43934;BME280;59081;42.706;23.306;2023-04-25T08:48:40;94316.94;;;14.14;84.25
43934;BME280;59081;42.706;23.306;2023-04-25T08:51:07;94261.97;;;13.92;79.95
43934;BME280;59081;42.706;23.306;2023-04-25T08:53:33;94284.28;;;14.18;77.32
43934;BME280;59081;42.706;23.306;2023-04-25T08:56:00;94286.53;;;14.55;78.81
43934;BME280;59081;42.706;23.306;2023-04-25T08:58:29;94282.22;;;14.94;75.32
43934;BME280;59081;42.706;23.306;2023-04-25T09:00:54;94326.38;;;15.44;74.67
43934;BME280;59081;42.706;23.306;2023-04-25T09:03:20;94280.63;;;15.60;72.35
43934;BME280;59081;42.706;23.306;2023-04-25T09:05:45;94304.31;;;15.81;71.50
43934;BME280;59081;42.706;23.306;2023-04-25T09:08:11;94278.25;;;15.73;72.01
43934;BME280;59081;42.706;23.306;2023-04-25T09:10:37;94259.50;;;15.99;73.13
43934;BME280;59081;42.706;23.306;2023-04-25T09:13:07;94236.06;;;16.06;71.75
43934;BME280;59081;42.706;23.306;2023-04-25T09:15:53;94315.59;;;16.83;71.71
43934;BME280;59081;42.706;23.306;2023-04-25T09:18:23;94265.28;;;16.81;70.71
43934;BME280;59081;42.706;23.306;2023-04-25T09:20:53;94235.94;;;16.75;70.29
43934;BME280;59081;42.706;23.306;2023-04-25T09:23:20;94315.56;;;17.31;67.00
43934;BME280;59081;42.706;23.306;2023-04-25T09:25:51;94257.38;;;16.63;67.77
43934;BME280;59081;42.706;23.306;2023-04-25T09:28:24;94307.19;;;17.26;68.02
43934;BME280;59081;42.706;23.306;2023-04-25T09:30:56;94282.56;;;17.02;68.31
43934;BME280;59081;42.706;23.306;2023-04-25T09:33:36;94234.03;;;17.09;68.65
43934;BME280;59081;42.706;23.306;2023-04-25T09:36:06;94216.31;;;16.47;68.87
43934;BME280;59081;42.706;23.306;2023-04-25T09:38:42;94202.06;;;16.70;68.33
43934;BME280;59081;42.706;23.306;2023-04-25T09:41:09;94226.97;;;17.13;64.83
43934;BME280;59081;42.706;23.306;2023-04-25T09:43:35;94314.41;;;17.94;64.35
43934;BME280;59081;42.706;23.306;2023-04-25T09:46:01;94289.06;;;18.14;63.47
43934;BME280;59081;42.706;23.306;2023-04-25T09:48:28;94267.28;;;18.07;63.62
43934;BME280;59081;42.706;23.306;2023-04-25T09:53:28;94242.97;;;18.02;61.16
43934;BME280;59081;42.706;23.306;2023-04-25T09:55:54;94238.44;;;17.77;60.38
43934;BME280;59081;42.706;23.306;2023-04-25T09:58:21;94234.38;;;17.94;59.94
43934;BME280;59081;42.706;23.306;2023-04-25T10:00:47;94253.53;;;18.37;59.54
43934;BME280;59081;42.706;23.306;2023-04-25T10:03:13;94246.44;;;18.53;59.43
43934;BME280;59081;42.706;23.306;2023-04-25T10:05:41;94281.09;;;18.80;60.33
43934;BME280;59081;42.706;23.306;2023-04-25T10:08:07;94300.56;;;19.02;57.97
43934;BME280;59081;42.706;23.306;2023-04-25T10:10:34;94224.84;;;18.53;57.45
43934;BME280;59081;42.706;23.306;2023-04-25T10:13:03;94260.03;;;18.84;56.05
43934;BME280;59081;42.706;23.306;2023-04-25T10:15:31;94222.91;;;18.31;58.15
43934;BME280;59081;42.706;23.306;2023-04-25T10:17:58;94196.63;;;17.93;58.15
43934;BME280;59081;42.706;23.306;2023-04-25T10:20:23;94276.91;;;18.17;59.00
43934;BME280;59081;42.706;23.306;2023-04-25T10:22:51;94290.34;;;17.74;57.46
43934;BME280;59081;42.706;23.306;2023-04-25T10:25:19;94205.59;;;16.71;47.92
43934;BME280;59081;42.706;23.306;2023-04-25T10:27:45;94158.88;;;16.97;48.48
43934;BME280;59081;42.706;23.306;2023-04-25T10:30:13;94290.78;;;18.56;50.31
43934;BME280;59081;42.706;23.306;2023-04-25T10:32:42;94296.00;;;18.93;52.89
43934;BME280;59081;42.706;23.306;2023-04-25T10:37:59;94342.03;;;17.16;54.16
43934;BME280;59081;42.706;23.306;2023-04-25T10:40:27;94276.16;;;16.36;57.46
43934;BME280;59081;42.706;23.306;2023-04-25T10:42:53;94246.00;;;15.81;59.15
43934;BME280;59081;42.706;23.306;2023-04-25T10:45:22;94258.94;;;15.90;60.59
43934;BME280;59081;42.706;23.306;2023-04-25T10:47:47;94220.13;;;15.64;60.36
43934;BME280;59081;42.706;23.306;2023-04-25T10:50:16;94268.38;;;16.04;61.16
43934;BME280;59081;42.706;23.306;2023-04-25T10:52:42;94184.75;;;15.96;61.12
43934;BME280;59081;42.706;23.306;2023-04-25T10:55:08;94297.03;;;17.17;59.83
43934;BME280;59081;42.706;23.306;2023-04-25T10:57:42;94235.81;;;17.12;58.12
43934;BME280;59081;42.706;23.306;2023-04-25T11:02:57;94191.84;;;17.71;54.47
43934;BME280;59081;42.706;23.306;2023-04-25T11:05:30;94269.00;;;18.43;54.26
43934;BME280;59081;42.706;23.306;2023-04-25T11:07:57;94205.44;;;18.25;49.43
43934;BME280;59081;42.706;23.306;2023-04-25T11:10:27;94243.66;;;18.53;48.68
43934;BME280;59081;42.706;23.306;2023-04-25T11:12:53;94286.81;;;19.09;46.09
43934;BME280;59081;42.706;23.306;2023-04-25T11:15:19;94260.94;;;19.09;46.60
43934;BME280;59081;42.706;23.306;2023-04-25T11:17:44;94235.78;;;18.46;44.68
43934;BME280;59081;42.706;23.306;2023-04-25T11:20:14;94287.44;;;18.80;51.01
43934;BME280;59081;42.706;23.306;2023-04-25T11:22:41;94266.72;;;18.48;52.31
43934;BME280;59081;42.706;23.306;2023-04-25T11:25:07;94208.00;;;18.12;51.31
43934;BME280;59081;42.706;23.306;2023-04-25T11:27:33;94165.75;;;17.63;52.28
43934;BME280;59081;42.706;23.306;2023-04-25T11:30:10;94205.50;;;17.58;52.20
43934;BME280;59081;42.706;23.306;2023-04-25T11:32:35;94218.13;;;17.31;52.43
43934;BME280;59081;42.706;23.306;2023-04-25T11:35:01;94261.59;;;17.07;51.79
43934;BME280;59081;42.706;23.306;2023-04-25T11:37:26;94163.94;;;16.28;52.73
43934;BME280;59081;42.706;23.306;2023-04-25T11:39:52;94208.63;;;15.82;54.59
43934;BME280;59081;42.706;23.306;2023-04-25T11:42:17;94302.16;;;16.33;59.43
43934;BME280;59081;42.706;23.306;2023-04-25T11:44:43;94198.66;;;15.64;56.16
43934;BME280;59081;42.706;23.306;2023-04-25T11:47:08;94282.56;;;15.80;56.91
43934;BME280;59081;42.706;23.306;2023-04-25T11:49:35;94236.25;;;14.42;57.16
43934;BME280;59081;42.706;23.306;2023-04-25T11:52:00;94210.19;;;13.78;61.25
43934;BME280;59081;42.706;23.306;2023-04-25T11:54:26;94273.53;;;14.26;62.32
43934;BME280;59081;42.706;23.306;2023-04-25T11:56:51;94215.44;;;14.32;61.73
43934;BME280;59081;42.706;23.306;2023-04-25T11:59:23;94126.97;;;14.02;60.69
43934;BME280;59081;42.706;23.306;2023-04-25T12:01:50;94186.53;;;14.79;60.70
43934;BME280;59081;42.706;23.306;2023-04-25T12:04:20;94231.88;;;15.27;60.70
43934;BME280;59081;42.706;23.306;2023-04-25T12:06:48;94199.56;;;15.50;59.28
43934;BME280;59081;42.706;23.306;2023-04-25T12:09:15;94245.47;;;15.51;56.49
43934;BME280;59081;42.706;23.306;2023-04-25T12:11:47;94194.97;;;15.73;56.38
43934;BME280;59081;42.706;23.306;2023-04-25T12:14:21;94170.75;;;14.90;58.22
43934;BME280;59081;42.706;23.306;2023-04-25T12:16:50;94170.00;;;14.23;59.24
43934;BME280;59081;42.706;23.306;2023-04-25T12:19:17;94215.66;;;14.69;59.05
43934;BME280;59081;42.706;23.306;2023-04-25T12:21:44;94213.88;;;14.45;59.07
43934;BME280;59081;42.706;23.306;2023-04-25T12:24:18;94200.72;;;14.40;57.91
43934;BME280;59081;42.706;23.306;2023-04-25T12:29:23;94312.72;;;15.15;60.93
43934;BME280;59081;42.706;23.306;2023-04-25T12:31:51;94241.16;;;13.97;71.42
43934;BME280;59081;42.706;23.306;2023-04-25T12:34:18;94312.00;;;13.89;78.25
43934;BME280;59081;42.706;23.306;2023-04-25T12:36:43;94274.25;;;13.42;80.70
43934;BME280;59081;42.706;23.306;2023-04-25T12:39:17;94322.72;;;13.52;79.62
43934;BME280;59081;42.706;23.306;2023-04-25T12:41:43;94339.88;;;13.41;78.75
43934;BME280;59081;42.706;23.306;2023-04-25T12:44:09;94255.09;;;12.70;80.28
43934;BME280;59081;42.706;23.306;2023-04-25T12:46:36;94260.56;;;12.55;80.59
43934;BME280;59081;42.706;23.306;2023-04-25T12:49:01;94249.66;;;12.37;79.24
43934;BME280;59081;42.706;23.306;2023-04-25T12:51:28;94230.81;;;12.12;82.29